Terminal Aerodrome Forecast
Issued by NWS Cleveland, OH

Home | Current Version | Previous Version | Graphics & Text | Print | Product List | Glossary On
Versions: 1 2 3 4 5 6 7 8 9 10 11 12 13 14 15
000
FTUS41 KCLE 231729
TAFYNG
TAF
KYNG 231729Z 2318/2418 23008KT 3SM -SHRA OVC015
      TEMPO 2318/2320 1 1/2SM TSRA OVC008CB
     FM232000 23012KT 5SM -SHRA OVC025
     FM232300 27008KT P6SM VCSH OVC015
     FM240300 31005KT P6SM OVC025
     FM240600 29005KT P6SM BKN035=

USA.gov is the U.S. government's official web portal to all federal, state and local government web resources and services.